Big Bear Station Historical Data
Daily Summary for June 11, 2017 Units:  English    Metric   Both
« Previous Day
Next Day »
Daily Weekly Monthly Yearly Custom
  High: Low: Average:
Temperature: 64.0 °F 37.2 °F 50.7 °F
Dew Point: 40.3 °F 23.6 °F 31.8 °F
Humidity: 87 % 23 % 51 %
Wind Speed: 10.4 mph 0.0 mph 3.3 mph
Wind Gust: 18.6 mph - -
Wind:- - West
Pressure: 30.04 in 29.97 in -
Precipitation: 0.00 in    
Historical Graphs
 
 
Tabular Data for June 11, 2017
Time Temperature Dew Point Pressure Wind Wind Speed Wind Gust Humidity Rainfall Rate (Hourly)
00:00 47.5 °F 30.3 °F 30.00 in Calm   -999.0 mph 51 % 0 in
00:16 47.1 °F 30.4 °F 30.00 in Calm   -999.0 mph 52 % 0 in
00:31 47.1 °F 27.4 °F 30.00 in SE 1.7 mph -999.0 mph 46 % 0 in
00:46 47.1 °F 26.8 °F 30.00 in Calm   -999.0 mph 45 % 0 in
01:01 47.5 °F 26.1 °F 29.99 in Calm   -999.0 mph 43 % 0 in
01:16 47.7 °F 26.3 °F 29.99 in Calm   -999.0 mph 43 % 0 in
01:32 47.5 °F 26.1 °F 29.99 in SE 1.7 mph -999.0 mph 43 % 0 in
01:47 47.3 °F 24.2 °F 29.99 in SSE 2.2 mph -999.0 mph 40 % 0 in
02:02 47.3 °F 26.5 °F 29.99 in SE 2.2 mph -999.0 mph 44 % 0 in
02:17 47.7 °F 29.5 °F 29.98 in West 1.7 mph -999.0 mph 49 % 0 in
02:32 47.5 °F 29.3 °F 29.98 in Calm   -999.0 mph 49 % 0 in
02:48 47.3 °F 28.1 °F 29.98 in ESE 1.1 mph -999.0 mph 47 % 0 in
03:03 47.1 °F 28.4 °F 29.97 in WNW 1.1 mph -999.0 mph 48 % 0 in
03:18 47.1 °F 28.9 °F 29.97 in WNW 2.2 mph -999.0 mph 49 % 0 in
03:33 46.8 °F 29.1 °F 29.97 in NNW 4.7 mph -999.0 mph 50 % 0 in
03:49 46.9 °F 29.7 °F 29.97 in Calm   -999.0 mph 51 % 0 in
04:04 46.8 °F 30.1 °F 29.97 in North 2.2 mph -999.0 mph 52 % 0 in
04:19 46.8 °F 31.0 °F 29.97 in Calm   -999.0 mph 54 % 0 in
04:34 46.2 °F 30.9 °F 29.97 in Calm   -999.0 mph 55 % 0 in
04:50 46.0 °F 29.8 °F 29.97 in Calm   -999.0 mph 53 % 0 in
05:05 46.0 °F 25.8 °F 29.97 in WSW 1.1 mph -999.0 mph 45 % 0 in
05:20 46.0 °F 25.3 °F 29.97 in North 3.2 mph -999.0 mph 44 % 0 in
05:35 46.8 °F 23.7 °F 29.97 in NW 2.7 mph -999.0 mph 40 % 0 in
05:51 46.6 °F 24.1 °F 29.97 in NNW 2.2 mph -999.0 mph 41 % 0 in
06:06 46.8 °F 24.9 °F 29.97 in Calm   -999.0 mph 42 % 0 in
06:21 47.1 °F 24.0 °F 29.97 in WNW 2.7 mph -999.0 mph 40 % 0 in
06:36 47.3 °F 24.8 °F 29.97 in WNW 3.7 mph -999.0 mph 41 % 0 in
06:51 47.7 °F 25.7 °F 29.98 in WNW 3.7 mph -999.0 mph 42 % 0 in
07:07 48.6 °F 25.4 °F 29.98 in WNW 5.8 mph -999.0 mph 40 % 0 in
07:22 48.7 °F 25.4 °F 29.98 in WNW 1.1 mph -999.0 mph 40 % 0 in
07:37 49.1 °F 25.8 °F 29.98 in NW 1.1 mph -999.0 mph 40 % 0 in
07:52 49.6 °F 25.0 °F 29.98 in NW 4.7 mph -999.0 mph 38 % 0 in
08:07 50.4 °F 24.4 °F 29.99 in NW 2.7 mph -999.0 mph 36 % 0 in
08:23 50.9 °F 24.9 °F 29.99 in NW 3.2 mph -999.0 mph 36 % 0 in
08:38 51.6 °F 24.1 °F 30.00 in NNW 3.2 mph -999.0 mph 34 % 0 in
08:53 52.7 °F 23.6 °F 30.00 in West 2.7 mph -999.0 mph 32 % 0 in
09:09 53.1 °F 27.5 °F 30.00 in WNW 4.7 mph -999.0 mph 37 % 0 in
09:24 53.2 °F 26.2 °F 30.00 in West 2.7 mph -999.0 mph 35 % 0 in
09:39 54.1 °F 28.4 °F 30.00 in NW 4.7 mph -999.0 mph 37 % 0 in
09:54 55.0 °F 30.5 °F 30.00 in NW 4.2 mph -999.0 mph 39 % 0 in
10:09 56.1 °F 28.8 °F 30.00 in West 4.2 mph -999.0 mph 35 % 0 in
10:25 56.1 °F 36.7 °F 30.00 in NW 4.7 mph -999.0 mph 48 % 0 in
10:40 56.1 °F 37.7 °F 30.00 in North 4.2 mph -999.0 mph 50 % 0 in
10:56 56.3 °F 37.9 °F 30.00 in NW 2.7 mph -999.0 mph 50 % 0 in
11:11 58.5 °F 32.3 °F 30.00 in WNW 6.3 mph -999.0 mph 37 % 0 in
11:26 60.3 °F 25.3 °F 30.00 in NNE 2.7 mph -999.0 mph 26 % 0 in
11:42 60.4 °F 24.4 °F 30.01 in SW 2.7 mph 18.6 mph 25 % 0 in
11:57 63.3 °F 24.8 °F 30.01 in WSW 2.7 mph -999.0 mph 23 % 0 in
12:13 60.6 °F 26.4 °F 30.02 in West 4.7 mph -999.0 mph 27 % 0 in
12:28 61.7 °F 30.7 °F 30.01 in North 5.3 mph -999.0 mph 31 % 0 in
12:43 62.6 °F 31.5 °F 30.01 in South 2.7 mph -999.0 mph 31 % 0 in
12:59 63.1 °F 33.5 °F 30.01 in NNW 10.4 mph -999.0 mph 33 % 0 in
13:14 64.0 °F 37.9 °F 30.01 in NW 9.4 mph -999.0 mph 38 % 0 in
13:29 62.8 °F 36.8 °F 30.01 in WNW 7.3 mph -999.0 mph 38 % 0 in
13:44 63.3 °F 35.9 °F 30.02 in NW 3.7 mph -999.0 mph 36 % 0 in
14:00 61.9 °F 33.9 °F 30.02 in NW 8.9 mph -999.0 mph 35 % 0 in
14:15 63.7 °F 32.5 °F 30.02 in WNW 5.3 mph -999.0 mph 31 % 0 in
14:30 60.8 °F 30.0 °F 30.01 in NW 8.3 mph -999.0 mph 31 % 0 in
14:45 61.7 °F 35.8 °F 30.01 in NW 5.8 mph -999.0 mph 38 % 0 in
15:01 59.9 °F 39.1 °F 30.02 in WSW 2.2 mph -999.0 mph 46 % 0 in
15:16 59.7 °F 38.9 °F 30.02 in North 5.8 mph -999.0 mph 46 % 0 in
15:32 60.4 °F 37.2 °F 30.01 in West 6.3 mph -999.0 mph 42 % 0 in
15:47 59.9 °F 37.9 °F 30.01 in ESE 4.7 mph -999.0 mph 44 % 0 in
16:02 59.5 °F 40.3 °F 30.01 in NW 5.3 mph -999.0 mph 49 % 0 in
16:17 58.6 °F 40.0 °F 30.01 in North 7.8 mph -999.0 mph 50 % 0 in
16:33 59.5 °F 39.8 °F 30.00 in West 4.2 mph -999.0 mph 48 % 0 in
16:48 59.4 °F 39.2 °F 30.01 in West 2.7 mph -999.0 mph 47 % 0 in
17:03 59.4 °F 38.0 °F 30.00 in NNW 9.4 mph -999.0 mph 45 % 0 in
17:19 59.2 °F 38.4 °F 30.00 in NNW 6.3 mph -999.0 mph 46 % 0 in
17:34 57.7 °F 38.7 °F 30.00 in WSW 4.2 mph -999.0 mph 49 % 0 in
17:49 55.4 °F 39.5 °F 30.00 in NW 4.7 mph -999.0 mph 55 % 0 in
18:04 53.2 °F 38.8 °F 30.00 in NE 3.2 mph -999.0 mph 58 % 0 in
18:20 51.3 °F 38.7 °F 29.99 in NW 5.8 mph -999.0 mph 62 % 0 in
18:35 48.6 °F 38.5 °F 30.00 in North 3.7 mph -999.0 mph 68 % 0 in
18:51 46.9 °F 38.0 °F 30.00 in North 3.2 mph -999.0 mph 71 % 0 in
19:06 46.2 °F 37.7 °F 30.00 in East 4.2 mph -999.0 mph 72 % 0 in
19:21 44.8 °F 37.4 °F 30.00 in SSW 2.7 mph -999.0 mph 75 % 0 in
19:36 44.6 °F 36.8 °F 30.00 in ENE 1.7 mph -999.0 mph 74 % 0 in
19:52 44.1 °F 37.7 °F 30.00 in SW 2.7 mph -999.0 mph 78 % 0 in
20:07 43.2 °F 37.1 °F 30.00 in West 1.7 mph -999.0 mph 79 % 0 in
20:22 42.4 °F 36.7 °F 30.00 in West 5.8 mph -999.0 mph 80 % 0 in
20:37 41.7 °F 36.0 °F 30.01 in WNW 2.2 mph -999.0 mph 80 % 0 in
20:53 41.5 °F 36.1 °F 30.01 in North 6.3 mph -999.0 mph 81 % 0 in
21:08 41.2 °F 36.1 °F 30.02 in West 7.3 mph -999.0 mph 82 % 0 in
21:24 40.5 °F 35.1 °F 30.02 in North 2.2 mph -999.0 mph 81 % 0 in
21:39 40.1 °F 35.0 °F 30.02 in NNW 5.3 mph -999.0 mph 82 % 0 in
21:55 39.9 °F 35.2 °F 30.02 in NW 2.7 mph -999.0 mph 83 % 0 in
22:10 39.4 °F 34.7 °F 30.03 in WNW 1.7 mph -999.0 mph 83 % 0 in
22:25 39.0 °F 34.9 °F 30.02 in WSW 1.7 mph -999.0 mph 85 % 0 in
22:40 38.8 °F 34.7 °F 30.03 in SW 2.2 mph -999.0 mph 85 % 0 in
22:55 38.7 °F 34.6 °F 30.03 in SW 2.7 mph -999.0 mph 85 % 0 in
23:11 38.3 °F 34.2 °F 30.04 in North 1.1 mph -999.0 mph 85 % 0 in
23:26 37.9 °F 33.8 °F 30.03 in Calm   -999.0 mph 85 % 0 in
23:41 37.2 °F 33.4 °F 30.03 in Calm   -999.0 mph 86 % 0 in
23:56 37.2 °F 33.7 °F 30.02 in SW 1.1 mph -999.0 mph 87 % 0 in
Big Bear CA Weather
Compliments of Weather Underground - 1.5 mb